Time;durP1;ratioP1;P1;durP2;ratioP2;P2;SDS_P1;SDS_P2;PMS_P1;PMS_P2;Temp;Humidity;BMP_temperature;BMP_pressure;BME280_temperature;BME280_humidity;BME280_pressure;Samples;Min_cycle;Max_cycle;Signal;HPM_P1;HPM_P2
2023/08/31 00:00:55;;;;;;;7.20;4.50;;;;;;;-128.00;-1.00;-1.00;106311;1245;1056477;-67
2023/08/31 00:03:32;;;;;;;7.40;3.50;;;;;;;-128.00;-1.00;-1.00;106311;1241;1038403;-67
2023/08/31 00:06:04;;;;;;;11.30;4.00;;;;;;;-128.00;-1.00;-1.00;106335;1244;1043830;-66
2023/08/31 00:08:34;;;;;;;6.80;3.70;;;;;;;-128.00;-1.00;-1.00;106300;1244;1057242;-66
2023/08/31 00:11:05;;;;;;;6.20;3.50;;;;;;;-128.00;-1.00;-1.00;106333;1244;1056860;-66
2023/08/31 00:13:36;;;;;;;5.40;3.60;;;;;;;-128.00;-1.00;-1.00;106328;1242;1056690;-67
2023/08/31 00:16:09;;;;;;;6.80;3.80;;;;;;;-128.00;-1.00;-1.00;106284;1244;1039013;-66
2023/08/31 00:18:39;;;;;;;11.80;3.60;;;;;;;-128.00;-1.00;-1.00;106378;1244;1044369;-67
2023/08/31 00:21:08;;;;;;;6.20;3.10;;;;;;;-128.00;-1.00;-1.00;106217;1241;1057993;-67
2023/08/31 00:23:39;;;;;;;5.10;3.30;;;;;;;-128.00;-1.00;-1.00;106333;1244;1055714;-67
2023/08/31 00:26:10;;;;;;;22.80;4.80;;;;;;;-128.00;-1.00;-1.00;106304;1243;1056157;-67
2023/08/31 00:28:44;;;;;;;6.90;3.60;;;;;;;-128.00;-1.00;-1.00;106320;1244;1039122;-67
2023/08/31 00:31:15;;;;;;;5.10;3.30;;;;;;;-128.00;-1.00;-1.00;106357;1244;1044572;-67
2023/08/31 00:33:45;;;;;;;6.80;3.70;;;;;;;-128.00;-1.00;-1.00;106235;1244;1058157;-66
2023/08/31 00:36:18;;;;;;;4.50;3.00;;;;;;;-128.00;-1.00;-1.00;106340;1244;1055317;-67
2023/08/31 00:38:48;;;;;;;8.90;3.30;;;;;;;-128.00;-1.00;-1.00;106319;1243;1055650;-67
2023/08/31 00:41:18;;;;;;;5.70;2.80;;;;;;;-128.00;-1.00;-1.00;106340;1244;1039281;-67
2023/08/31 00:43:49;;;;;;;6.70;2.60;;;;;;;-128.00;-1.00;-1.00;106271;1244;1043837;-66
2023/08/31 00:46:21;;;;;;;14.90;3.40;;;;;;;-128.00;-1.00;-1.00;106166;1241;1057705;-66
2023/08/31 00:48:54;;;;;;;6.20;2.80;;;;;;;-128.00;-1.00;-1.00;106322;1244;1056098;-66
2023/08/31 00:51:25;;;;;;;5.10;3.00;;;;;;;-128.00;-1.00;-1.00;106329;1241;1056460;-66
2023/08/31 00:53:58;;;;;;;10.60;3.40;;;;;;;-128.00;-1.00;-1.00;106332;1241;1039256;-66
2023/08/31 00:56:30;;;;;;;6.60;2.70;;;;;;;-128.00;-1.00;-1.00;106320;1244;1043846;-66
2023/08/31 00:59:04;;;;;;;7.30;2.40;;;;;;;-128.00;-1.00;-1.00;106341;1244;1058041;-66
2023/08/31 01:01:43;;;;;;;5.60;2.40;;;;;;;-128.00;-1.00;-1.00;106354;1241;1056377;-68
2023/08/31 01:04:41;;;;;;;4.90;2.20;;;;;;;-128.00;-1.00;-1.00;106336;1242;1055932;-67
2023/08/31 01:07:16;;;;;;;5.80;2.00;;;;;;;-128.00;-1.00;-1.00;106260;1244;1038459;-67
2023/08/31 01:10:18;;;;;;;5.60;2.00;;;;;;;-128.00;-1.00;-1.00;106337;1244;1043599;-66
2023/08/31 01:13:03;;;;;;;2.70;1.60;;;;;;;-128.00;-1.00;-1.00;106209;1244;1056293;-67
2023/08/31 01:15:34;;;;;;;4.50;2.50;;;;;;;-128.00;-1.00;-1.00;106302;1244;1055840;-67
2023/08/31 01:18:08;;;;;;;3.40;2.40;;;;;;;-128.00;-1.00;-1.00;106185;1244;1056603;-66
2023/08/31 01:21:13;;;;;;;3.00;1.90;;;;;;;-128.00;-1.00;-1.00;106312;1244;1038710;-67
2023/08/31 01:23:58;;;;;;;3.00;1.90;;;;;;;-128.00;-1.00;-1.00;106105;1243;1043682;-66
2023/08/31 01:26:29;;;;;;;3.70;1.60;;;;;;;-128.00;-1.00;-1.00;106257;1241;1057831;-66
2023/08/31 01:29:00;;;;;;;2.70;2.00;;;;;;;-128.00;-1.00;-1.00;106322;1245;1056262;-66
2023/08/31 01:43:25;;;;;;;3.70;2.40;;;;;;;14.01;100.00;96696.27;107168;1270;609994;-66
2023/08/31 01:45:58;;;;;;;4.10;2.60;;;;;;;14.04;100.00;96701.59;108814;1254;466345;-66
2023/08/31 01:48:29;;;;;;;4.40;2.80;;;;;;;14.05;100.00;96703.15;109216;1254;58095;-66
2023/08/31 01:51:01;;;;;;;6.90;2.30;;;;;;;14.03;100.00;96707.84;109162;1256;69010;-65
2023/08/31 01:53:31;;;;;;;4.50;2.00;;;;;;;14.03;100.00;96710.15;109132;1255;69335;-65
2023/08/31 01:56:01;;;;;;;7.60;2.20;;;;;;;14.02;100.00;96711.09;109180;1258;69316;-66
2023/08/31 01:58:30;;;;;;;5.40;2.00;;;;;;;14.01;100.00;96706.42;109147;1255;57711;-65
2023/08/31 02:01:02;;;;;;;5.30;2.20;;;;;;;13.99;100.00;96701.90;109004;1258;57692;-67
2023/08/31 02:03:36;;;;;;;5.70;2.20;;;;;;;13.99;100.00;96704.39;109086;1254;67303;-66
2023/08/31 02:06:06;;;;;;;4.80;2.30;;;;;;;13.98;100.00;96702.02;109107;1258;69719;-67
2023/08/31 02:08:38;;;;;;;6.20;2.30;;;;;;;13.95;100.00;96696.84;109184;1255;69284;-66
2023/08/31 02:11:09;;;;;;;4.30;2.20;;;;;;;13.95;100.00;96701.73;109154;1255;58180;-67
2023/08/31 02:13:41;;;;;;;5.80;2.00;;;;;;;13.95;100.00;96707.18;109079;1256;58092;-67
2023/08/31 02:16:12;;;;;;;2.30;1.60;;;;;;;13.94;100.00;96711.38;109127;1255;69706;-67
2023/08/31 02:18:43;;;;;;;3.40;1.30;;;;;;;13.91;100.00;96714.07;109114;1253;68479;-67
2023/08/31 02:21:13;;;;;;;;;;;;;;;13.87;100.00;96719.22;109155;1254;69286;-67
2023/08/31 02:23:44;;;;;;;2.00;1.30;;;;;;;13.82;100.00;96717.93;110072;1244;58126;-66
2023/08/31 02:26:14;;;;;;;2.60;1.70;;;;;;;13.76;100.00;96716.41;110124;1242;58079;-67
2023/08/31 02:28:45;;;;;;;2.50;1.50;;;;;;;13.71;100.00;96721.05;110111;1244;69728;-65
2023/08/31 02:31:18;;;;;;;2.90;1.60;;;;;;;13.68;100.00;96725.20;110137;1245;68555;-66
2023/08/31 02:33:49;;;;;;;2.60;1.30;;;;;;;13.67;100.00;96731.14;110134;1244;68304;-66
2023/08/31 02:36:21;;;;;;;2.30;1.60;;;;;;;13.56;100.00;96733.71;110158;1245;58102;-66
2023/08/31 02:38:53;;;;;;;2.90;1.40;;;;;;;13.47;100.00;96742.31;110052;1245;58127;-66
2023/08/31 02:41:22;;;;;;;4.50;1.40;;;;;;;13.39;100.00;96748.90;110015;1245;69666;-65
2023/08/31 02:43:53;;;;;;;2.40;1.80;;;;;;;13.29;100.00;96755.05;110096;1245;68321;-66
2023/08/31 02:46:22;;;;;;;3.80;1.60;;;;;;;13.25;100.00;96753.67;110120;1245;69852;-66
2023/08/31 02:48:54;;;;;;;2.00;1.40;;;;;;;13.22;100.00;96750.80;109836;1245;58139;-66
2023/08/31 02:51:26;;;;;;;2.50;1.60;;;;;;;13.20;100.00;96745.64;110117;1245;58020;-66
2023/08/31 02:53:57;;;;;;;2.00;1.40;;;;;;;13.22;100.00;96745.89;109867;1245;69795;-66
2023/08/31 02:56:26;;;;;;;2.90;1.60;;;;;;;13.25;100.00;96747.02;110081;1245;68111;-65
2023/08/31 02:58:57;;;;;;;2.50;1.30;;;;;;;13.28;100.00;96746.92;109985;1244;68553;-65
2023/08/31 03:01:27;;;;;;;3.60;1.40;;;;;;;13.30;100.00;96746.91;110109;1245;58082;-65
2023/08/31 03:03:59;;;;;;;2.90;1.50;;;;;;;13.32;100.00;96746.39;110118;1245;58081;-65
2023/08/31 03:06:33;;;;;;;1.90;1.10;;;;;;;13.34;100.00;96746.17;109987;1252;69030;-65
2023/08/31 03:09:04;;;;;;;1.30;1.10;;;;;;;13.33;100.00;96745.74;110158;1243;68465;-65
2023/08/31 03:11:35;;;;;;;2.20;1.30;;;;;;;13.31;100.00;96741.44;110095;1245;69197;-66
2023/08/31 03:14:06;;;;;;;3.80;1.40;;;;;;;13.30;100.00;96745.15;110002;1245;58134;-66
2023/08/31 03:16:36;;;;;;;2.00;1.50;;;;;;;13.29;100.00;96749.98;110146;1245;58097;-67
2023/08/31 03:19:07;;;;;;;4.10;1.40;;;;;;;13.29;100.00;96756.48;110094;1245;69780;-65
2023/08/31 03:21:38;;;;;;;2.10;1.50;;;;;;;13.28;100.00;96757.66;110043;1245;69837;-65
2023/08/31 03:24:08;;;;;;;3.10;1.30;;;;;;;13.24;100.00;96761.41;110132;1244;68421;-66
2023/08/31 03:26:38;;;;;;;1.90;1.30;;;;;;;13.20;100.00;96763.34;110124;1245;58093;-66
2023/08/31 03:29:08;;;;;;;;;;;;;;;13.16;100.00;96763.77;110071;1244;58027;-66
2023/08/31 03:31:38;;;;;;;2.40;0.90;;;;;;;13.14;100.00;96768.13;110124;1245;69196;-66
2023/08/31 03:34:09;;;;;;;2.30;1.30;;;;;;;13.13;100.00;96770.87;110104;1245;69652;-66
2023/08/31 03:36:40;;;;;;;2.60;1.00;;;;;;;13.12;100.00;96771.10;110095;1243;67514;-66
2023/08/31 03:39:11;;;;;;;2.10;1.10;;;;;;;13.12;100.00;96770.06;110119;1245;58340;-66
2023/08/31 03:41:44;;;;;;;1.70;1.00;;;;;;;13.14;100.00;96770.40;110095;1245;58086;-66
2023/08/31 03:44:15;;;;;;;2.10;1.30;;;;;;;13.16;100.00;96770.34;109795;1244;69662;-65
2023/08/31 03:46:45;;;;;;;2.80;1.00;;;;;;;13.19;100.00;96767.81;110080;1243;69046;-65
2023/08/31 03:49:16;;;;;;;2.20;1.40;;;;;;;13.20;100.00;96761.81;109763;1246;69871;-67
2023/08/31 03:51:48;;;;;;;2.40;1.10;;;;;;;13.20;100.00;96763.69;110071;1245;58127;-66
2023/08/31 03:54:20;;;;;;;3.80;1.30;;;;;;;13.20;100.00;96764.58;109819;1245;58066;-66
2023/08/31 03:56:51;;;;;;;1.70;1.30;;;;;;;13.21;100.00;96766.38;109911;1245;68014;-65
2023/08/31 03:59:25;;;;;;;1.20;1.00;;;;;;;13.23;100.00;96764.82;110036;1245;69226;-66
2023/08/31 04:01:54;;;;;;;2.70;1.10;;;;;;;13.25;100.00;96765.89;109930;1245;67850;-66
2023/08/31 04:04:25;;;;;;;4.20;1.20;;;;;;;13.28;100.00;96770.23;109870;1245;58130;-66
2023/08/31 04:06:55;;;;;;;2.10;1.00;;;;;;;13.29;100.00;96768.86;110068;1245;58086;-66
2023/08/31 04:09:25;;;;;;;4.30;1.50;;;;;;;13.27;100.00;96771.20;110118;1245;70019;-66
2023/08/31 04:11:56;;;;;;;2.10;0.70;;;;;;;13.26;100.00;96778.44;109973;1245;68339;-66
2023/08/31 04:14:29;;;;;;;2.70;1.00;;;;;;;13.26;100.00;96776.69;110097;1245;69843;-66
2023/08/31 04:16:58;;;;;;;4.30;0.90;;;;;;;13.27;100.00;96784.52;110106;1250;58513;-65
2023/08/31 04:19:28;;;;;;;3.00;0.90;;;;;;;13.29;100.00;96785.48;110141;1245;58114;-67
2023/08/31 04:21:57;;;;;;;1.40;0.90;;;;;;;13.32;100.00;96790.27;110123;1244;70313;-66
2023/08/31 04:24:27;;;;;;;2.60;0.90;;;;;;;13.35;100.00;96790.52;110118;1244;68578;-66
2023/08/31 04:26:57;;;;;;;1.60;1.10;;;;;;;13.38;100.00;96794.60;110081;1245;69761;-65
2023/08/31 04:29:28;;;;;;;1.60;1.10;;;;;;;13.41;100.00;96802.61;110118;1245;58119;-66
2023/08/31 04:31:58;;;;;;;1.90;1.30;;;;;;;13.43;100.00;96802.52;110114;1244;58141;-64
2023/08/31 04:34:27;;;;;;;2.20;1.40;;;;;;;13.45;100.00;96804.44;110124;1245;69812;-66
2023/08/31 04:36:57;;;;;;;2.60;1.50;;;;;;;13.48;100.00;96802.27;110086;1246;69821;-66
2023/08/31 04:39:26;;;;;;;3.00;1.60;;;;;;;13.52;100.00;96801.68;110090;1251;68475;-67
2023/08/31 04:41:55;;;;;;;2.50;1.80;;;;;;;13.53;100.00;96802.17;110115;1245;58086;-67
2023/08/31 04:44:25;;;;;;;2.50;1.70;;;;;;;13.56;100.00;96804.65;110126;1244;58073;-66
2023/08/31 04:46:55;;;;;;;2.30;1.50;;;;;;;13.59;100.00;96810.86;110142;1245;70392;-65
2023/08/31 04:49:24;;;;;;;;;;;;;;;13.59;100.00;96818.00;110113;1245;70018;-65
2023/08/31 04:51:55;;;;;;;3.80;1.30;;;;;;;13.58;100.00;96819.54;110063;1245;68691;-66
2023/08/31 04:54:25;;;;;;;7.50;3.20;;;;;;;13.59;100.00;96813.78;110099;1245;58079;-65
2023/08/31 04:56:55;;;;;;;;;;;;;;;13.63;100.00;96809.42;110120;1252;58017;-65
2023/08/31 04:59:24;;;;;;;6.80;2.40;;;;;;;13.66;100.00;96815.08;110082;1246;69033;-66
2023/08/31 05:01:54;;;;;;;1.90;1.30;;;;;;;13.72;100.00;96816.05;110119;1247;69336;-67
2023/08/31 05:04:23;;;;;;;3.30;1.50;;;;;;;13.82;100.00;96823.26;110111;1246;68896;-67
2023/08/31 05:06:53;;;;;;;2.00;1.30;;;;;;;13.87;100.00;96823.80;110109;1244;58180;-66
2023/08/31 05:09:25;;;;;;;2.30;1.40;;;;;;;13.95;100.00;96823.37;110092;1245;58138;-66
2023/08/31 05:11:54;;;;;;;1.40;1.00;;;;;;;14.02;100.00;96823.39;110071;1244;69863;-66
2023/08/31 05:14:23;;;;;;;2.80;1.50;;;;;;;14.09;100.00;96830.30;110131;1245;69863;-66
2023/08/31 05:16:53;;;;;;;2.00;1.50;;;;;;;14.15;100.00;96831.26;110095;1245;69925;-66
2023/08/31 05:19:22;;;;;;;2.10;1.30;;;;;;;14.23;100.00;96827.27;110052;1245;58085;-66
2023/08/31 05:21:53;;;;;;;1.70;1.30;;;;;;;14.32;100.00;96831.94;110105;1245;58122;-66
2023/08/31 05:24:22;;;;;;;2.00;1.20;;;;;;;14.41;100.00;96837.45;110111;1245;70477;-66
2023/08/31 05:26:52;;;;;;;2.30;1.70;;;;;;;14.47;100.00;96837.76;110128;1246;69799;-65
2023/08/31 05:29:21;;;;;;;2.10;1.60;;;;;;;14.49;100.00;96837.77;110089;1245;69423;-67
2023/08/31 05:31:53;;;;;;;3.90;2.00;;;;;;;14.53;100.00;96840.05;110099;1247;58083;-66
2023/08/31 05:34:23;;;;;;;9.20;2.30;;;;;;;14.60;100.00;96843.40;110002;1247;58138;-67
2023/08/31 05:36:52;;;;;;;2.30;1.60;;;;;;;14.68;100.00;96844.83;110093;1245;70719;-67
2023/08/31 05:39:22;;;;;;;6.70;2.10;;;;;;;14.67;100.00;96851.44;110138;1245;69202;-66
2023/08/31 05:41:51;;;;;;;6.20;2.60;;;;;;;14.65;100.00;96855.10;110121;1244;68315;-66
2023/08/31 05:44:20;;;;;;;19.50;3.20;;;;;;;14.61;100.00;96857.30;110078;1246;58105;-66
2023/08/31 05:46:49;;;;;;;8.60;2.00;;;;;;;14.47;100.00;96860.90;110077;1244;58109;-64
2023/08/31 05:49:18;;;;;;;9.80;2.30;;;;;;;14.52;100.00;96862.60;110044;1245;69793;-66
2023/08/31 05:51:47;;;;;;;7.20;1.90;;;;;;;14.56;100.00;96862.73;110070;1244;69826;-66
2023/08/31 05:54:16;;;;;;;2.40;1.80;;;;;;;14.61;100.00;96866.92;110120;1244;68523;-66
2023/08/31 05:56:47;;;;;;;3.50;2.30;;;;;;;14.63;100.00;96863.73;110089;1244;58963;-66
2023/08/31 05:59:16;;;;;;;2.50;1.80;;;;;;;14.76;100.00;96860.42;110133;1245;58937;-66
2023/08/31 06:01:45;;;;;;;3.00;1.90;;;;;;;14.82;100.00;96857.85;110073;1244;69969;-65
2023/08/31 06:04:15;;;;;;;4.40;2.30;;;;;;;14.97;100.00;96863.08;110080;1244;68463;-65
2023/08/31 06:06:44;;;;;;;7.30;2.70;;;;;;;15.06;100.00;96874.66;110093;1245;69498;-65
2023/08/31 06:09:14;;;;;;;23.00;2.90;;;;;;;15.00;100.00;96883.46;110067;1245;58937;-68
2023/08/31 06:11:43;;;;;;;2.30;1.50;;;;;;;14.88;100.00;96883.39;110090;1245;58848;-66
2023/08/31 06:14:12;;;;;;;3.00;1.40;;;;;;;15.01;100.00;96884.92;110104;1245;71086;-66
2023/08/31 06:16:41;;;;;;;3.10;2.00;;;;;;;15.11;100.00;96886.98;110109;1245;68917;-66
2023/08/31 06:19:10;;;;;;;2.40;1.70;;;;;;;15.27;100.00;96888.65;110087;1246;69232;-66
2023/08/31 06:21:39;;;;;;;5.30;2.00;;;;;;;15.35;100.00;96890.38;110066;1244;58866;-66
2023/08/31 06:24:12;;;;;;;2.80;1.90;;;;;;;15.38;100.00;96895.63;110111;1247;58899;-65
2023/08/31 06:26:42;;;;;;;7.90;2.50;;;;;;;15.45;100.00;96891.09;110100;1243;71649;-66
2023/08/31 06:29:12;;;;;;;72.60;5.70;;;;;;;15.43;100.00;96898.96;110083;1252;69525;-65
2023/08/31 06:31:41;;;;;;;55.10;5.50;;;;;;;15.32;100.00;96904.98;110156;1246;68372;-66
2023/08/31 06:34:11;;;;;;;4.70;2.60;;;;;;;15.30;100.00;96914.02;110094;1245;58951;-66
2023/08/31 06:36:40;;;;;;;5.50;2.70;;;;;;;15.25;100.00;96916.08;110077;1252;58946;-65
2023/08/31 06:51:26;;;;;;;4.50;3.50;;;;;;;15.82;100.00;96919.15;107361;1270;610204;-65
2023/08/31 06:53:55;;;;;;;3.80;2.80;;;;;;;16.15;100.00;96916.83;108937;1250;403931;-65
2023/08/31 06:56:24;;;;;;;5.50;4.20;;;;;;;16.36;100.00;96923.30;109364;1250;57734;-65
2023/08/31 06:58:53;;;;;;;5.70;3.90;;;;;;;16.44;100.00;96928.17;109765;1244;69449;-65
2023/08/31 07:01:23;;;;;;;5.00;3.20;;;;;;;16.50;100.00;96932.48;109809;1248;69218;-66
2023/08/31 07:03:51;;;;;;;3.70;2.90;;;;;;;16.59;100.00;96934.73;109792;1248;69862;-67
2023/08/31 07:06:21;;;;;;;6.80;4.60;;;;;;;16.67;100.00;96933.73;109825;1246;58056;-65
2023/08/31 07:08:51;;;;;;;6.40;4.50;;;;;;;16.75;100.00;96938.55;109899;1246;57987;-66
2023/08/31 07:11:21;;;;;;;5.40;4.10;;;;;;;16.78;100.00;96943.31;109918;1244;68217;-66
2023/08/31 07:13:50;;;;;;;5.50;3.80;;;;;;;16.76;100.00;96949.52;109836;1245;69283;-66
2023/08/31 07:16:19;;;;;;;7.20;4.60;;;;;;;16.69;100.00;96954.13;109743;1244;69171;-66
2023/08/31 07:18:48;;;;;;;6.10;4.80;;;;;;;16.66;100.00;96961.96;109813;1245;58139;-66
2023/08/31 07:21:17;;;;;;;6.70;5.50;;;;;;;16.58;100.00;96961.93;109916;1248;58007;-66
2023/08/31 07:23:48;;;;;;;7.50;6.60;;;;;;;16.52;100.00;96961.98;109931;1245;69727;-66
2023/08/31 07:26:18;;;;;;;8.60;6.10;;;;;;;16.45;100.00;96960.86;109772;1246;68401;-66
2023/08/31 07:28:47;;;;;;;8.00;5.90;;;;;;;16.20;100.00;96964.08;109839;1246;69072;-66
2023/08/31 07:31:16;;;;;;;9.80;7.80;;;;;;;16.23;100.00;96959.90;109727;1246;58099;-66
2023/08/31 07:33:46;;;;;;;8.20;5.70;;;;;;;16.26;100.00;96964.67;109775;1248;58440;-66
2023/08/31 07:36:15;;;;;;;12.90;11.70;;;;;;;16.30;100.00;96967.33;109890;1248;70363;-66
2023/08/31 07:38:44;;;;;;;8.40;6.80;;;;;;;16.39;100.00;96964.27;109742;1246;69202;-65
2023/08/31 07:41:13;;;;;;;7.30;5.60;;;;;;;16.41;100.00;96967.53;109698;1244;68635;-65
2023/08/31 07:43:42;;;;;;;5.40;4.20;;;;;;;16.57;100.00;96967.45;109810;1246;58496;-67
2023/08/31 07:46:31;;;;;;;4.60;4.00;;;;;;;16.77;100.00;96962.77;110313;1241;58131;-65
2023/08/31 07:49:00;;;;;;;5.50;4.40;;;;;;;16.82;100.00;96966.48;110324;1241;70534;-67
2023/08/31 07:51:29;;;;;;;5.40;4.60;;;;;;;16.88;100.00;96964.59;110303;1239;70849;-65
2023/08/31 07:53:59;;;;;;;;;;;;;;;16.96;100.00;96967.28;110296;1241;68860;-67
2023/08/31 07:56:31;;;;;;;6.30;4.60;;;;;;;17.08;100.00;96970.22;110298;1241;58054;-66
2023/08/31 07:59:00;;;;;;;7.30;5.00;;;;;;;17.26;100.00;96973.39;110364;1241;58072;-67
2023/08/31 08:01:29;;;;;;;4.00;3.50;;;;;;;17.55;100.00;96972.98;110411;1241;70362;-66
2023/08/31 08:03:59;;;;;;;5.60;4.60;;;;;;;17.85;100.00;96965.11;110351;1239;67492;-66
2023/08/31 08:06:28;;;;;;;7.40;5.40;;;;;;;18.09;100.00;96972.60;110292;1241;68653;-67
2023/08/31 08:08:57;;;;;;;5.80;4.60;;;;;;;18.28;100.00;96978.87;110187;1241;58100;-66
2023/08/31 08:11:27;;;;;;;7.40;6.40;;;;;;;18.48;100.00;96981.21;110260;1243;58135;-65
2023/08/31 08:13:56;;;;;;;7.00;6.30;;;;;;;18.53;100.00;96977.86;110312;1241;70172;-65
2023/08/31 08:16:25;;;;;;;4.60;3.90;;;;;;;18.67;100.00;96973.69;110280;1241;69234;-66
2023/08/31 08:18:54;;;;;;;4.30;3.70;;;;;;;18.75;100.00;96968.34;110238;1240;69574;-66
2023/08/31 08:21:23;;;;;;;6.60;5.30;;;;;;;18.81;100.00;96971.70;110272;1241;58044;-66
2023/08/31 08:23:52;;;;;;;5.20;4.60;;;;;;;18.89;100.00;96977.54;110280;1241;58488;-65
2023/08/31 08:26:22;;;;;;;5.00;4.40;;;;;;;18.91;100.00;96980.63;110367;1241;69030;-66
2023/08/31 08:28:51;;;;;;;;;;;;;;;19.03;100.00;96980.41;110343;1241;67660;-66
2023/08/31 08:31:20;;;;;;;7.20;6.30;;;;;;;19.08;100.00;96981.58;110302;1242;68679;-66
2023/08/31 08:33:51;;;;;;;6.00;4.90;;;;;;;19.19;100.00;96980.44;110304;1242;58089;-66
2023/08/31 08:36:20;;;;;;;4.60;4.00;;;;;;;19.27;100.00;96982.90;110292;1241;58127;-66
2023/08/31 08:38:49;;;;;;;6.30;4.90;;;;;;;19.44;100.00;96980.22;110263;1241;70075;-66
2023/08/31 08:41:23;;;;;;;;;;;;;;;19.69;99.59;96986.58;110215;1243;69257;-66
2023/08/31 08:43:52;;;;;;;8.80;7.20;;;;;;;20.06;99.84;96991.45;110293;1241;69284;-66
2023/08/31 08:46:22;;;;;;;6.50;5.60;;;;;;;20.45;96.67;96984.10;110272;1241;58152;-66
2023/08/31 08:48:52;;;;;;;5.90;5.10;;;;;;;20.82;94.22;96981.16;110299;1241;58073;-66
2023/08/31 08:51:22;;;;;;;7.40;6.20;;;;;;;21.12;96.01;96984.65;110274;1241;69758;-66
2023/08/31 08:53:51;;;;;;;;;;;;;;;21.17;93.17;96980.52;110318;1241;69260;-67
2023/08/31 08:56:20;;;;;;;5.30;4.60;;;;;;;21.26;91.62;96980.75;110312;1241;68208;-67
2023/08/31 08:58:48;;;;;;;4.90;4.30;;;;;;;21.40;91.04;96979.77;110360;1241;58090;-67
2023/08/31 09:01:22;;;;;;;4.80;4.20;;;;;;;21.39;88.49;96978.92;110253;1241;58068;-65
2023/08/31 09:03:51;;;;;;;5.60;4.50;;;;;;;21.56;88.36;96978.32;110224;1240;69023;-66
2023/08/31 09:06:20;;;;;;;5.70;5.10;;;;;;;21.64;85.41;96977.36;110243;1239;69662;-66
2023/08/31 09:08:57;;;;;;;4.60;3.50;;;;;;;21.55;82.45;96974.39;110217;1239;69288;-66
2023/08/31 09:11:27;;;;;;;6.30;5.50;;;;;;;21.44;85.61;96973.61;110238;1241;58083;-66
2023/08/31 09:13:58;;;;;;;4.50;3.80;;;;;;;21.37;83.79;96979.48;110252;1241;58015;-66
2023/08/31 09:16:30;;;;;;;4.90;4.40;;;;;;;21.39;84.11;96980.48;110295;1243;70227;-66
2023/08/31 09:18:59;;;;;;;5.20;4.70;;;;;;;21.66;85.68;96985.58;110251;1248;69799;-66
2023/08/31 09:21:36;;;;;;;3.70;3.30;;;;;;;21.85;84.56;96984.82;110235;1241;69180;-66
2023/08/31 09:24:10;;;;;;;5.40;4.20;;;;;;;21.95;83.61;96988.34;110230;1241;58128;-66
2023/08/31 09:26:57;;;;;;;4.90;4.20;;;;;;;22.02;82.16;96989.04;110311;1241;58049;-66
2023/08/31 09:29:27;;;;;;;5.90;4.80;;;;;;;22.03;81.39;96994.23;110261;1239;69841;-66
2023/08/31 09:31:57;;;;;;;5.30;4.20;;;;;;;22.03;81.52;96991.62;109777;1241;69670;-66
2023/08/31 09:34:33;;;;;;;6.30;4.80;;;;;;;22.42;79.99;96991.17;110261;1240;69832;-66
2023/08/31 09:37:08;;;;;;;5.80;4.80;;;;;;;22.27;79.32;96985.76;110274;1241;58131;-66
2023/08/31 09:39:39;;;;;;;3.80;3.30;;;;;;;22.78;78.25;96994.39;110291;1241;58070;-66
2023/08/31 09:42:09;;;;;;;4.30;3.40;;;;;;;23.70;75.39;97001.40;110317;1241;69036;-67
2023/08/31 09:44:42;;;;;;;3.60;3.10;;;;;;;23.91;71.99;96999.31;110268;1241;69979;-67
2023/08/31 09:47:13;;;;;;;4.60;4.10;;;;;;;24.79;69.91;96991.65;110235;1240;68460;-67
2023/08/31 09:49:43;;;;;;;3.30;2.90;;;;;;;25.20;66.49;96985.31;110234;1241;58129;-66
2023/08/31 09:52:14;;;;;;;3.60;2.60;;;;;;;24.99;65.57;96982.61;110343;1241;58108;-67
2023/08/31 09:54:44;;;;;;;4.00;3.60;;;;;;;25.38;64.42;96981.42;110276;1241;69426;-65
2023/08/31 09:57:16;;;;;;;5.30;4.30;;;;;;;25.42;64.32;96984.26;110132;1245;69243;-66
2023/08/31 09:59:49;;;;;;;3.50;3.10;;;;;;;25.10;64.93;96988.79;110226;1241;69244;-66
2023/08/31 10:02:18;;;;;;;3.10;2.60;;;;;;;25.44;65.05;96991.81;110264;1241;58103;-67
2023/08/31 10:04:52;;;;;;;3.20;2.80;;;;;;;25.01;64.10;96992.56;110295;1241;58051;-67
2023/08/31 10:07:21;;;;;;;3.40;2.50;;;;;;;25.04;64.78;96992.83;110249;1240;69779;-67
2023/08/31 10:09:51;;;;;;;4.70;3.00;;;;;;;25.54;63.13;96990.73;110293;1241;69786;-67
2023/08/31 10:12:22;;;;;;;3.40;2.50;;;;;;;25.74;60.95;96988.56;110296;1241;70063;-67
2023/08/31 10:14:52;;;;;;;3.10;2.50;;;;;;;25.67;62.31;96989.85;110254;1241;58082;-66
2023/08/31 10:17:22;;;;;;;3.50;2.70;;;;;;;25.75;59.97;96988.77;110314;1241;58109;-66
2023/08/31 10:19:52;;;;;;;3.40;2.80;;;;;;;26.05;58.70;96988.94;110172;1242;70186;-66
2023/08/31 10:22:21;;;;;;;3.10;2.70;;;;;;;26.89;58.33;96986.23;110293;1241;68721;-64
2023/08/31 10:25:00;;;;;;;2.70;2.10;;;;;;;28.00;56.46;96985.67;110336;1241;69248;-66
2023/08/31 10:27:38;;;;;;;3.60;2.40;;;;;;;28.52;54.52;96985.26;110317;1243;58119;-67
2023/08/31 10:30:22;;;;;;;3.50;3.00;;;;;;;29.57;53.03;96988.45;110276;1242;58076;-66
2023/08/31 10:33:09;;;;;;;3.80;2.70;;;;;;;29.63;47.31;96987.52;110270;1241;70405;-64
2023/08/31 10:35:49;;;;;;;3.60;2.30;;;;;;;29.00;45.28;96986.42;110263;1243;69160;-62
2023/08/31 10:38:26;;;;;;;;;;;;;;;28.60;46.53;96990.48;110308;1241;69880;-67
2023/08/31 10:41:08;;;;;;;4.10;2.80;;;;;;;28.14;46.29;96991.91;110278;1242;58156;-67
2023/08/31 10:43:47;;;;;;;2.50;2.10;;;;;;;27.75;47.15;96988.16;110293;1241;58109;-67
2023/08/31 10:46:17;;;;;;;3.70;2.80;;;;;;;27.37;47.83;96986.73;110342;1240;69769;-67
2023/08/31 10:48:57;;;;;;;4.10;3.00;;;;;;;27.06;50.02;96983.88;110347;1241;69150;-67
2023/08/31 10:51:29;;;;;;;2.80;2.10;;;;;;;26.33;52.23;96984.69;110082;1244;68587;-64
2023/08/31 10:54:07;;;;;;;3.00;2.40;;;;;;;26.02;54.27;96983.70;110101;1244;58207;-66
2023/08/31 10:56:57;;;;;;;4.70;3.10;;;;;;;26.08;55.51;96985.08;110113;1243;58082;-66
2023/08/31 10:59:46;;;;;;;5.50;3.80;;;;;;;25.93;54.87;96984.09;110132;1245;70366;-66
2023/08/31 11:02:34;;;;;;;4.80;3.60;;;;;;;25.23;55.26;96981.91;110150;1244;69885;-66
2023/08/31 11:05:14;;;;;;;4.90;4.20;;;;;;;24.76;55.47;96988.66;110054;1244;69204;-65
2023/08/31 11:07:48;;;;;;;4.30;3.70;;;;;;;24.31;56.30;96992.50;110088;1244;58877;-66
2023/08/31 11:10:19;;;;;;;4.40;3.60;;;;;;;24.21;58.00;96992.48;110136;1244;58859;-66
2023/08/31 11:12:50;;;;;;;3.80;3.40;;;;;;;24.41;56.37;96988.65;110175;1245;70611;-66
2023/08/31 11:15:21;;;;;;;4.80;3.20;;;;;;;24.39;55.17;96986.30;110113;1243;69203;-66
2023/08/31 11:17:51;;;;;;;5.40;3.70;;;;;;;24.29;56.02;96990.29;110130;1244;69867;-65
2023/08/31 11:20:23;;;;;;;3.50;3.00;;;;;;;24.41;55.55;96986.73;110138;1244;58874;-66
2023/08/31 11:22:53;;;;;;;3.40;2.50;;;;;;;24.30;54.76;96986.27;110127;1242;58935;-67
2023/08/31 11:25:25;;;;;;;4.50;3.20;;;;;;;24.48;53.87;96980.75;109894;1241;69916;-67
2023/08/31 11:28:06;;;;;;;4.40;2.80;;;;;;;24.26;52.86;96983.72;110128;1243;69820;-67
2023/08/31 11:30:36;;;;;;;5.20;4.00;;;;;;;24.80;55.86;96977.23;110073;1244;68362;-67
2023/08/31 11:33:08;;;;;;;3.70;2.60;;;;;;;25.08;54.30;96982.45;110061;1244;58889;-67
2023/08/31 11:35:43;;;;;;;4.00;3.50;;;;;;;25.42;53.99;96980.75;110132;1244;58879;-66
2023/08/31 11:38:13;;;;;;;4.00;3.40;;;;;;;25.62;52.76;96983.16;110175;1244;69472;-66
2023/08/31 11:40:42;;;;;;;5.50;3.00;;;;;;;25.77;52.62;96980.85;110198;1243;69064;-66
2023/08/31 11:43:11;;;;;;;3.80;2.70;;;;;;;26.05;51.94;96979.30;110152;1241;69234;-67
2023/08/31 11:45:43;;;;;;;4.30;3.50;;;;;;;26.21;51.72;96979.73;110141;1244;58927;-67
2023/08/31 11:48:11;;;;;;;;;;;;;;;26.07;51.19;96980.32;110165;1244;58897;-65
2023/08/31 11:50:41;;;;;;;5.80;4.80;;;;;;;26.29;52.50;96982.67;110283;1241;69637;-67
2023/08/31 11:53:11;;;;;;;4.00;3.00;;;;;;;26.09;50.76;96984.37;110267;1241;69838;-67
2023/08/31 11:55:53;;;;;;;5.50;4.30;;;;;;;25.92;51.38;96979.09;110257;1241;69246;-67
2023/08/31 11:58:27;;;;;;;6.90;5.40;;;;;;;25.76;51.32;96977.56;110267;1241;58957;-67
2023/08/31 12:01:00;;;;;;;5.00;4.30;;;;;;;25.66;52.42;96973.15;110313;1241;59321;-67
2023/08/31 12:03:43;;;;;;;6.70;4.30;;;;;;;25.98;52.93;96975.45;110289;1241;70546;-67
2023/08/31 12:06:18;;;;;;;4.90;3.70;;;;;;;26.88;51.84;96970.52;110284;1241;69181;-67